sensor_id;sensor_type;location;lat;lon;timestamp;temperature;humidity
34776;DHT22;20989;52.566;13.346;2022-10-14T00:00:44;20.60;52.00
34776;DHT22;20989;52.566;13.346;2022-10-14T00:03:46;20.60;52.20
34776;DHT22;20989;52.566;13.346;2022-10-14T00:06:47;20.60;52.40
34776;DHT22;20989;52.566;13.346;2022-10-14T00:09:48;20.60;52.60
34776;DHT22;20989;52.566;13.346;2022-10-14T00:12:48;20.60;52.20
34776;DHT22;20989;52.566;13.346;2022-10-14T00:15:49;20.50;52.00
34776;DHT22;20989;52.566;13.346;2022-10-14T00:18:50;20.50;52.30
34776;DHT22;20989;52.566;13.346;2022-10-14T00:21:51;20.60;52.20
34776;DHT22;20989;52.566;13.346;2022-10-14T00:24:52;20.60;52.00
34776;DHT22;20989;52.566;13.346;2022-10-14T00:27:53;20.60;52.30
34776;DHT22;20989;52.566;13.346;2022-10-14T00:30:59;20.60;51.90
34776;DHT22;20989;52.566;13.346;2022-10-14T00:34:00;20.60;52.00
34776;DHT22;20989;52.566;13.346;2022-10-14T00:37:01;20.60;52.10
34776;DHT22;20989;52.566;13.346;2022-10-14T00:40:02;20.60;52.20
34776;DHT22;20989;52.566;13.346;2022-10-14T00:43:03;20.60;52.00
34776;DHT22;20989;52.566;13.346;2022-10-14T00:46:04;20.50;52.50
34776;DHT22;20989;52.566;13.346;2022-10-14T00:49:09;20.60;52.20
34776;DHT22;20989;52.566;13.346;2022-10-14T00:52:15;20.50;53.20
34776;DHT22;20989;52.566;13.346;2022-10-14T00:55:18;20.50;52.00
34776;DHT22;20989;52.566;13.346;2022-10-14T00:58:19;20.60;52.50
34776;DHT22;20989;52.566;13.346;2022-10-14T01:01:19;20.50;51.90
34776;DHT22;20989;52.566;13.346;2022-10-14T01:04:20;20.50;52.10
34776;DHT22;20989;52.566;13.346;2022-10-14T01:07:36;20.60;52.00
34776;DHT22;20989;52.566;13.346;2022-10-14T01:10:49;20.60;52.40
34776;DHT22;20989;52.566;13.346;2022-10-14T01:28:05;20.50;51.80
34776;DHT22;20989;52.566;13.346;2022-10-14T01:31:25;20.50;51.80
34776;DHT22;20989;52.566;13.346;2022-10-14T01:34:34;20.50;52.10
34776;DHT22;20989;52.566;13.346;2022-10-14T01:37:42;20.50;52.20
34776;DHT22;20989;52.566;13.346;2022-10-14T01:41:21;20.50;51.90
34776;DHT22;20989;52.566;13.346;2022-10-14T01:44:23;20.50;52.40
34776;DHT22;20989;52.566;13.346;2022-10-14T01:47:28;20.50;52.10
34776;DHT22;20989;52.566;13.346;2022-10-14T01:50:30;20.50;51.90
34776;DHT22;20989;52.566;13.346;2022-10-14T01:53:37;20.50;51.90
34776;DHT22;20989;52.566;13.346;2022-10-14T01:56:38;20.50;52.30
34776;DHT22;20989;52.566;13.346;2022-10-14T01:59:41;20.50;51.70
34776;DHT22;20989;52.566;13.346;2022-10-14T02:02:43;20.50;52.70
34776;DHT22;20989;52.566;13.346;2022-10-14T02:06:03;20.50;51.70
34776;DHT22;20989;52.566;13.346;2022-10-14T02:09:13;20.50;52.20
34776;DHT22;20989;52.566;13.346;2022-10-14T02:19:27;20.50;52.40
34776;DHT22;20989;52.566;13.346;2022-10-14T02:22:37;20.50;52.70
34776;DHT22;20989;52.566;13.346;2022-10-14T02:25:40;20.50;52.10
34776;DHT22;20989;52.566;13.346;2022-10-14T02:28:43;20.50;52.50
34776;DHT22;20989;52.566;13.346;2022-10-14T02:31:46;20.40;52.20
34776;DHT22;20989;52.566;13.346;2022-10-14T02:34:51;20.50;52.50
34776;DHT22;20989;52.566;13.346;2022-10-14T02:37:53;20.50;52.10
34776;DHT22;20989;52.566;13.346;2022-10-14T02:40:56;20.40;52.60
34776;DHT22;20989;52.566;13.346;2022-10-14T02:43:59;20.40;52.50
34776;DHT22;20989;52.566;13.346;2022-10-14T02:47:00;20.50;53.20
34776;DHT22;20989;52.566;13.346;2022-10-14T02:50:01;20.50;52.40
34776;DHT22;20989;52.566;13.346;2022-10-14T02:53:02;20.40;52.40
34776;DHT22;20989;52.566;13.346;2022-10-14T02:56:03;20.50;52.60
34776;DHT22;20989;52.566;13.346;2022-10-14T02:59:03;20.40;52.40
34776;DHT22;20989;52.566;13.346;2022-10-14T03:02:05;20.40;52.20
34776;DHT22;20989;52.566;13.346;2022-10-14T03:05:07;20.50;52.00
34776;DHT22;20989;52.566;13.346;2022-10-14T03:08:07;20.40;52.10
34776;DHT22;20989;52.566;13.346;2022-10-14T03:11:08;20.40;52.00
34776;DHT22;20989;52.566;13.346;2022-10-14T03:14:09;20.40;51.90
34776;DHT22;20989;52.566;13.346;2022-10-14T03:17:10;20.40;52.20
34776;DHT22;20989;52.566;13.346;2022-10-14T03:20:11;20.40;52.30
34776;DHT22;20989;52.566;13.346;2022-10-14T03:23:12;20.40;52.10
34776;DHT22;20989;52.566;13.346;2022-10-14T03:26:13;20.40;52.00
34776;DHT22;20989;52.566;13.346;2022-10-14T03:29:14;20.40;52.00
34776;DHT22;20989;52.566;13.346;2022-10-14T03:32:15;20.40;52.10
34776;DHT22;20989;52.566;13.346;2022-10-14T03:35:15;20.40;52.20
34776;DHT22;20989;52.566;13.346;2022-10-14T03:38:16;20.40;52.40
34776;DHT22;20989;52.566;13.346;2022-10-14T03:41:17;20.40;52.20
34776;DHT22;20989;52.566;13.346;2022-10-14T03:44:18;20.40;52.10
34776;DHT22;20989;52.566;13.346;2022-10-14T03:47:18;20.40;52.20
34776;DHT22;20989;52.566;13.346;2022-10-14T03:50:19;20.40;52.60
34776;DHT22;20989;52.566;13.346;2022-10-14T03:53:19;20.40;52.30
34776;DHT22;20989;52.566;13.346;2022-10-14T03:56:20;20.40;53.50
34776;DHT22;20989;52.566;13.346;2022-10-14T03:59:21;20.40;53.40
34776;DHT22;20989;52.566;13.346;2022-10-14T04:02:23;20.40;53.10
34776;DHT22;20989;52.566;13.346;2022-10-14T04:05:23;20.40;52.70
34776;DHT22;20989;52.566;13.346;2022-10-14T04:08:24;20.40;52.90
34776;DHT22;20989;52.566;13.346;2022-10-14T04:11:25;20.40;52.50
34776;DHT22;20989;52.566;13.346;2022-10-14T04:14:26;20.40;52.60
34776;DHT22;20989;52.566;13.346;2022-10-14T04:17:26;20.40;52.90
34776;DHT22;20989;52.566;13.346;2022-10-14T04:20:28;20.40;53.20
34776;DHT22;20989;52.566;13.346;2022-10-14T04:23:28;20.40;53.40
34776;DHT22;20989;52.566;13.346;2022-10-14T04:26:29;20.40;52.70
34776;DHT22;20989;52.566;13.346;2022-10-14T04:29:30;20.40;52.50
34776;DHT22;20989;52.566;13.346;2022-10-14T04:32:30;20.40;52.80
34776;DHT22;20989;52.566;13.346;2022-10-14T04:35:31;20.40;52.90
34776;DHT22;20989;52.566;13.346;2022-10-14T04:38:32;20.40;52.60
34776;DHT22;20989;52.566;13.346;2022-10-14T04:41:33;20.40;52.80
34776;DHT22;20989;52.566;13.346;2022-10-14T04:44:33;20.40;52.70
34776;DHT22;20989;52.566;13.346;2022-10-14T04:47:34;20.40;52.90
34776;DHT22;20989;52.566;13.346;2022-10-14T04:50:35;20.40;53.30
34776;DHT22;20989;52.566;13.346;2022-10-14T04:53:35;20.30;53.00
34776;DHT22;20989;52.566;13.346;2022-10-14T04:56:36;20.30;53.50
34776;DHT22;20989;52.566;13.346;2022-10-14T05:03:35;20.40;53.10
34776;DHT22;20989;52.566;13.346;2022-10-14T05:06:36;20.30;53.10
34776;DHT22;20989;52.566;13.346;2022-10-14T05:09:37;20.40;52.60
34776;DHT22;20989;52.566;13.346;2022-10-14T05:12:38;20.30;52.40
34776;DHT22;20989;52.566;13.346;2022-10-14T05:15:40;20.30;52.80
34776;DHT22;20989;52.566;13.346;2022-10-14T05:18:40;20.40;53.60
34776;DHT22;20989;52.566;13.346;2022-10-14T05:21:41;20.30;53.30
34776;DHT22;20989;52.566;13.346;2022-10-14T05:24:41;20.30;53.50
34776;DHT22;20989;52.566;13.346;2022-10-14T05:27:43;20.30;53.60
34776;DHT22;20989;52.566;13.346;2022-10-14T05:30:43;20.30;53.50
34776;DHT22;20989;52.566;13.346;2022-10-14T05:33:44;20.40;53.20
34776;DHT22;20989;52.566;13.346;2022-10-14T05:36:45;20.30;53.80
34776;DHT22;20989;52.566;13.346;2022-10-14T05:39:46;20.40;53.70
34776;DHT22;20989;52.566;13.346;2022-10-14T05:42:47;20.40;53.70
34776;DHT22;20989;52.566;13.346;2022-10-14T05:45:47;20.30;52.40
34776;DHT22;20989;52.566;13.346;2022-10-14T05:48:48;20.40;52.80
34776;DHT22;20989;52.566;13.346;2022-10-14T05:51:49;20.50;52.70
34776;DHT22;20989;52.566;13.346;2022-10-14T05:54:49;20.60;52.30
34776;DHT22;20989;52.566;13.346;2022-10-14T05:57:54;20.60;52.30
34776;DHT22;20989;52.566;13.346;2022-10-14T06:01:01;20.60;52.30
34776;DHT22;20989;52.566;13.346;2022-10-14T06:04:03;20.60;52.10
34776;DHT22;20989;52.566;13.346;2022-10-14T06:07:04;20.60;52.30
34776;DHT22;20989;52.566;13.346;2022-10-14T06:10:05;20.70;52.20
34776;DHT22;20989;52.566;13.346;2022-10-14T06:13:06;20.70;51.70
34776;DHT22;20989;52.566;13.346;2022-10-14T06:16:08;20.70;51.60
34776;DHT22;20989;52.566;13.346;2022-10-14T06:19:09;20.70;51.90
34776;DHT22;20989;52.566;13.346;2022-10-14T06:22:10;20.90;51.80
34776;DHT22;20989;52.566;13.346;2022-10-14T06:25:10;20.80;51.70
34776;DHT22;20989;52.566;13.346;2022-10-14T06:28:11;20.70;52.00
34776;DHT22;20989;52.566;13.346;2022-10-14T06:31:12;20.70;52.00
34776;DHT22;20989;52.566;13.346;2022-10-14T06:34:13;20.80;52.00
34776;DHT22;20989;52.566;13.346;2022-10-14T06:37:14;20.80;52.40
34776;DHT22;20989;52.566;13.346;2022-10-14T06:40:15;20.80;52.10
34776;DHT22;20989;52.566;13.346;2022-10-14T06:43:15;20.80;51.90
34776;DHT22;20989;52.566;13.346;2022-10-14T06:46:16;20.90;51.80
34776;DHT22;20989;52.566;13.346;2022-10-14T06:49:17;20.80;51.80
34776;DHT22;20989;52.566;13.346;2022-10-14T06:52:17;20.90;52.10
34776;DHT22;20989;52.566;13.346;2022-10-14T06:55:18;20.80;51.80
34776;DHT22;20989;52.566;13.346;2022-10-14T06:58:18;20.80;52.00
34776;DHT22;20989;52.566;13.346;2022-10-14T07:01:19;20.90;51.90
34776;DHT22;20989;52.566;13.346;2022-10-14T07:04:20;21.00;51.90
34776;DHT22;20989;52.566;13.346;2022-10-14T07:07:21;21.00;51.80
34776;DHT22;20989;52.566;13.346;2022-10-14T07:10:22;21.00;51.80
34776;DHT22;20989;52.566;13.346;2022-10-14T07:13:22;21.10;51.70
34776;DHT22;20989;52.566;13.346;2022-10-14T07:16:23;21.10;51.90
34776;DHT22;20989;52.566;13.346;2022-10-14T07:19:24;21.20;51.60
34776;DHT22;20989;52.566;13.346;2022-10-14T07:22:25;21.20;51.70
34776;DHT22;20989;52.566;13.346;2022-10-14T07:25:25;21.30;51.70
34776;DHT22;20989;52.566;13.346;2022-10-14T07:28:26;21.30;51.70
34776;DHT22;20989;52.566;13.346;2022-10-14T07:31:26;21.30;51.60
34776;DHT22;20989;52.566;13.346;2022-10-14T07:34:29;21.30;51.50
34776;DHT22;20989;52.566;13.346;2022-10-14T07:37:30;21.30;51.60
34776;DHT22;20989;52.566;13.346;2022-10-14T07:40:31;21.30;51.40
34776;DHT22;20989;52.566;13.346;2022-10-14T07:43:33;21.40;51.20
34776;DHT22;20989;52.566;13.346;2022-10-14T07:46:38;21.40;51.30
34776;DHT22;20989;52.566;13.346;2022-10-14T07:49:39;21.50;51.00
34776;DHT22;20989;52.566;13.346;2022-10-14T07:52:40;21.50;51.00
34776;DHT22;20989;52.566;13.346;2022-10-14T07:55:44;21.60;50.80
34776;DHT22;20989;52.566;13.346;2022-10-14T07:58:51;21.60;50.70
34776;DHT22;20989;52.566;13.346;2022-10-14T08:01:53;21.60;50.70
34776;DHT22;20989;52.566;13.346;2022-10-14T08:04:55;21.60;50.70
34776;DHT22;20989;52.566;13.346;2022-10-14T08:07:55;21.60;50.80
34776;DHT22;20989;52.566;13.346;2022-10-14T08:11:13;21.50;50.90
34776;DHT22;20989;52.566;13.346;2022-10-14T08:14:16;21.40;51.20
34776;DHT22;20989;52.566;13.346;2022-10-14T08:17:16;21.40;51.40
34776;DHT22;20989;52.566;13.346;2022-10-14T08:20:17;21.30;51.40
34776;DHT22;20989;52.566;13.346;2022-10-14T08:23:18;21.30;51.40
34776;DHT22;20989;52.566;13.346;2022-10-14T08:29:28;21.30;51.50
34776;DHT22;20989;52.566;13.346;2022-10-14T08:32:29;21.30;51.40
34776;DHT22;20989;52.566;13.346;2022-10-14T08:35:30;21.30;51.40
34776;DHT22;20989;52.566;13.346;2022-10-14T08:38:31;21.40;51.50
34776;DHT22;20989;52.566;13.346;2022-10-14T08:44:57;21.40;51.50
34776;DHT22;20989;52.566;13.346;2022-10-14T08:48:01;21.40;51.60
34776;DHT22;20989;52.566;13.346;2022-10-14T08:51:11;21.40;51.40
34776;DHT22;20989;52.566;13.346;2022-10-14T08:54:20;21.50;51.50
34776;DHT22;20989;52.566;13.346;2022-10-14T08:57:27;21.60;51.10
34776;DHT22;20989;52.566;13.346;2022-10-14T09:00:30;21.60;51.00
34776;DHT22;20989;52.566;13.346;2022-10-14T09:03:31;21.60;51.20
34776;DHT22;20989;52.566;13.346;2022-10-14T09:06:35;21.70;51.30
34776;DHT22;20989;52.566;13.346;2022-10-14T09:09:42;21.60;51.20
34776;DHT22;20989;52.566;13.346;2022-10-14T09:12:45;21.70;51.40
34776;DHT22;20989;52.566;13.346;2022-10-14T09:15:51;21.70;51.30
34776;DHT22;20989;52.566;13.346;2022-10-14T09:18:58;21.60;51.70
34776;DHT22;20989;52.566;13.346;2022-10-14T09:21:59;21.60;51.60
34776;DHT22;20989;52.566;13.346;2022-10-14T09:25:00;21.40;51.50
34776;DHT22;20989;52.566;13.346;2022-10-14T09:28:01;21.40;51.20
34776;DHT22;20989;52.566;13.346;2022-10-14T09:31:07;21.40;50.90
34776;DHT22;20989;52.566;13.346;2022-10-14T09:34:17;21.40;51.20
34776;DHT22;20989;52.566;13.346;2022-10-14T09:37:26;21.40;50.50
34776;DHT22;20989;52.566;13.346;2022-10-14T09:40:33;21.30;50.70
34776;DHT22;20989;52.566;13.346;2022-10-14T09:43:34;21.30;51.00
34776;DHT22;20989;52.566;13.346;2022-10-14T09:46:35;21.50;50.80
34776;DHT22;20989;52.566;13.346;2022-10-14T09:49:43;21.50;50.70
34776;DHT22;20989;52.566;13.346;2022-10-14T09:52:49;21.50;50.80
34776;DHT22;20989;52.566;13.346;2022-10-14T09:55:57;21.50;50.90
34776;DHT22;20989;52.566;13.346;2022-10-14T09:59:00;21.50;51.00
34776;DHT22;20989;52.566;13.346;2022-10-14T10:02:02;21.50;50.90
34776;DHT22;20989;52.566;13.346;2022-10-14T10:05:26;21.50;51.60
34776;DHT22;20989;52.566;13.346;2022-10-14T10:08:27;21.50;50.70
34776;DHT22;20989;52.566;13.346;2022-10-14T10:11:34;21.40;50.60
34776;DHT22;20989;52.566;13.346;2022-10-14T10:14:36;21.50;50.50
34776;DHT22;20989;52.566;13.346;2022-10-14T10:17:38;21.40;50.50
34776;DHT22;20989;52.566;13.346;2022-10-14T10:20:39;21.40;49.90
34776;DHT22;20989;52.566;13.346;2022-10-14T10:24:02;21.40;50.10
34776;DHT22;20989;52.566;13.346;2022-10-14T10:27:24;21.40;49.90
34776;DHT22;20989;52.566;13.346;2022-10-14T10:30:34;21.30;50.60
34776;DHT22;20989;52.566;13.346;2022-10-14T10:34:01;21.30;50.90
34776;DHT22;20989;52.566;13.346;2022-10-14T10:40:33;21.40;50.30
34776;DHT22;20989;52.566;13.346;2022-10-14T10:54:12;21.40;50.80
34776;DHT22;20989;52.566;13.346;2022-10-14T10:56:55;21.40;50.50
34776;DHT22;20989;52.566;13.346;2022-10-14T11:00:18;21.40;51.00
34776;DHT22;20989;52.566;13.346;2022-10-14T11:13:50;21.50;50.90
34776;DHT22;20989;52.566;13.346;2022-10-14T11:17:11;21.50;51.10
34776;DHT22;20989;52.566;13.346;2022-10-14T11:20:23;21.40;51.20
34776;DHT22;20989;52.566;13.346;2022-10-14T11:37:11;21.30;51.50
34776;DHT22;20989;52.566;13.346;2022-10-14T11:40:25;21.40;51.50
34776;DHT22;20989;52.566;13.346;2022-10-14T11:43:49;21.40;51.40
34776;DHT22;20989;52.566;13.346;2022-10-14T11:46:54;21.50;51.30
34776;DHT22;20989;52.566;13.346;2022-10-14T11:50:03;21.50;51.60
34776;DHT22;20989;52.566;13.346;2022-10-14T11:53:18;21.40;51.40
34776;DHT22;20989;52.566;13.346;2022-10-14T12:09:20;21.60;51.60
34776;DHT22;20989;52.566;13.346;2022-10-14T12:12:23;21.60;52.00
34776;DHT22;20989;52.566;13.346;2022-10-14T12:15:26;21.60;52.00
34776;DHT22;20989;52.566;13.346;2022-10-14T12:18:28;21.60;52.10
34776;DHT22;20989;52.566;13.346;2022-10-14T12:21:31;21.60;51.90
34776;DHT22;20989;52.566;13.346;2022-10-14T12:24:42;21.40;51.80
34776;DHT22;20989;52.566;13.346;2022-10-14T12:27:44;21.50;52.20
34776;DHT22;20989;52.566;13.346;2022-10-14T12:30:45;21.60;52.10
34776;DHT22;20989;52.566;13.346;2022-10-14T12:40:38;21.60;51.80
34776;DHT22;20989;52.566;13.346;2022-10-14T12:43:39;21.70;52.20
34776;DHT22;20989;52.566;13.346;2022-10-14T12:46:43;21.60;52.20
34776;DHT22;20989;52.566;13.346;2022-10-14T12:49:54;21.60;52.10
34776;DHT22;20989;52.566;13.346;2022-10-14T12:53:05;21.60;52.20
34776;DHT22;20989;52.566;13.346;2022-10-14T12:56:06;21.60;52.50
34776;DHT22;20989;52.566;13.346;2022-10-14T12:59:18;21.60;52.30
34776;DHT22;20989;52.566;13.346;2022-10-14T13:02:37;21.60;52.10
34776;DHT22;20989;52.566;13.346;2022-10-14T13:05:44;21.70;52.10
34776;DHT22;20989;52.566;13.346;2022-10-14T13:15:35;21.70;52.70
34776;DHT22;20989;52.566;13.346;2022-10-14T13:18:49;21.70;52.90
34776;DHT22;20989;52.566;13.346;2022-10-14T13:21:51;21.80;53.30
34776;DHT22;20989;52.566;13.346;2022-10-14T13:24:52;21.80;53.90
34776;DHT22;20989;52.566;13.346;2022-10-14T13:28:14;21.80;53.60
34776;DHT22;20989;52.566;13.346;2022-10-14T13:38:12;21.80;53.10
34776;DHT22;20989;52.566;13.346;2022-10-14T13:41:16;21.80;53.50
34776;DHT22;20989;52.566;13.346;2022-10-14T13:44:24;21.80;53.40
34776;DHT22;20989;52.566;13.346;2022-10-14T13:47:25;21.90;53.20
34776;DHT22;20989;52.566;13.346;2022-10-14T13:50:32;21.90;53.50
34776;DHT22;20989;52.566;13.346;2022-10-14T13:53:33;21.90;53.50
34776;DHT22;20989;52.566;13.346;2022-10-14T13:56:34;21.90;53.20
34776;DHT22;20989;52.566;13.346;2022-10-14T13:59:41;22.00;53.80
34776;DHT22;20989;52.566;13.346;2022-10-14T14:02:42;22.00;53.70
34776;DHT22;20989;52.566;13.346;2022-10-14T14:05:44;22.00;53.50
34776;DHT22;20989;52.566;13.346;2022-10-14T14:08:48;21.80;52.80
34776;DHT22;20989;52.566;13.346;2022-10-14T14:11:53;21.70;52.30
34776;DHT22;20989;52.566;13.346;2022-10-14T14:14:57;21.60;52.00
34776;DHT22;20989;52.566;13.346;2022-10-14T14:17:59;21.60;51.60
34776;DHT22;20989;52.566;13.346;2022-10-14T14:20:59;21.60;51.70
34776;DHT22;20989;52.566;13.346;2022-10-14T14:24:00;21.70;51.40
34776;DHT22;20989;52.566;13.346;2022-10-14T14:27:02;21.80;51.50
34776;DHT22;20989;52.566;13.346;2022-10-14T14:30:03;21.70;51.20
34776;DHT22;20989;52.566;13.346;2022-10-14T14:33:31;21.60;51.20
34776;DHT22;20989;52.566;13.346;2022-10-14T14:36:34;21.60;51.30
34776;DHT22;20989;52.566;13.346;2022-10-14T14:39:35;21.60;51.30
34776;DHT22;20989;52.566;13.346;2022-10-14T14:42:37;21.80;51.30
34776;DHT22;20989;52.566;13.346;2022-10-14T14:45:43;21.80;51.00
34776;DHT22;20989;52.566;13.346;2022-10-14T14:48:51;21.90;51.00
34776;DHT22;20989;52.566;13.346;2022-10-14T14:51:53;21.90;51.00
34776;DHT22;20989;52.566;13.346;2022-10-14T14:54:54;22.00;51.00
34776;DHT22;20989;52.566;13.346;2022-10-14T14:57:57;22.00;50.90
34776;DHT22;20989;52.566;13.346;2022-10-14T15:00:59;22.00;50.90
34776;DHT22;20989;52.566;13.346;2022-10-14T15:04:15;22.00;51.40
34776;DHT22;20989;52.566;13.346;2022-10-14T15:07:18;22.00;51.60
34776;DHT22;20989;52.566;13.346;2022-10-14T15:10:25;22.10;51.20
34776;DHT22;20989;52.566;13.346;2022-10-14T15:13:45;22.00;51.60
34776;DHT22;20989;52.566;13.346;2022-10-14T15:16:51;21.70;51.20
34776;DHT22;20989;52.566;13.346;2022-10-14T15:19:57;21.70;51.20
34776;DHT22;20989;52.566;13.346;2022-10-14T15:22:58;21.60;51.40
34776;DHT22;20989;52.566;13.346;2022-10-14T15:25:58;21.90;51.40
34776;DHT22;20989;52.566;13.346;2022-10-14T15:29:17;22.00;51.30
34776;DHT22;20989;52.566;13.346;2022-10-14T15:32:19;22.10;50.80
34776;DHT22;20989;52.566;13.346;2022-10-14T15:35:20;22.10;51.10
34776;DHT22;20989;52.566;13.346;2022-10-14T15:38:22;22.10;51.60
34776;DHT22;20989;52.566;13.346;2022-10-14T15:41:23;22.00;51.50
34776;DHT22;20989;52.566;13.346;2022-10-14T15:44:24;22.10;51.70
34776;DHT22;20989;52.566;13.346;2022-10-14T15:47:25;22.10;51.80
34776;DHT22;20989;52.566;13.346;2022-10-14T15:50:28;22.10;51.50
34776;DHT22;20989;52.566;13.346;2022-10-14T15:53:29;22.10;51.40
34776;DHT22;20989;52.566;13.346;2022-10-14T15:56:31;22.10;51.80
34776;DHT22;20989;52.566;13.346;2022-10-14T15:59:32;22.10;51.70
34776;DHT22;20989;52.566;13.346;2022-10-14T16:02:33;22.10;51.70
34776;DHT22;20989;52.566;13.346;2022-10-14T16:05:34;22.10;51.50
34776;DHT22;20989;52.566;13.346;2022-10-14T16:08:37;22.20;51.80
34776;DHT22;20989;52.566;13.346;2022-10-14T16:11:38;22.10;51.50
34776;DHT22;20989;52.566;13.346;2022-10-14T16:14:41;21.90;51.40
34776;DHT22;20989;52.566;13.346;2022-10-14T16:17:41;21.80;51.70
34776;DHT22;20989;52.566;13.346;2022-10-14T16:20:42;22.00;51.80
34776;DHT22;20989;52.566;13.346;2022-10-14T16:23:43;22.00;51.50
34776;DHT22;20989;52.566;13.346;2022-10-14T16:26:44;22.00;51.60
34776;DHT22;20989;52.566;13.346;2022-10-14T16:29:46;22.10;51.80
34776;DHT22;20989;52.566;13.346;2022-10-14T16:32:47;22.10;51.30
34776;DHT22;20989;52.566;13.346;2022-10-14T16:35:54;22.30;51.20
34776;DHT22;20989;52.566;13.346;2022-10-14T16:38:55;22.30;51.20
34776;DHT22;20989;52.566;13.346;2022-10-14T16:41:56;22.30;51.70
34776;DHT22;20989;52.566;13.346;2022-10-14T16:44:59;22.20;51.10
34776;DHT22;20989;52.566;13.346;2022-10-14T16:47:59;22.10;51.50
34776;DHT22;20989;52.566;13.346;2022-10-14T16:51:00;22.20;51.20
34776;DHT22;20989;52.566;13.346;2022-10-14T16:54:02;22.20;51.60
34776;DHT22;20989;52.566;13.346;2022-10-14T16:57:03;22.10;52.10
34776;DHT22;20989;52.566;13.346;2022-10-14T17:00:05;22.10;52.10
34776;DHT22;20989;52.566;13.346;2022-10-14T17:03:05;22.10;52.30
34776;DHT22;20989;52.566;13.346;2022-10-14T17:06:06;22.00;52.30
34776;DHT22;20989;52.566;13.346;2022-10-14T17:09:07;22.10;52.40
34776;DHT22;20989;52.566;13.346;2022-10-14T17:12:08;22.10;52.20
34776;DHT22;20989;52.566;13.346;2022-10-14T17:15:10;21.90;52.00
34776;DHT22;20989;52.566;13.346;2022-10-14T17:18:12;21.80;52.50
34776;DHT22;20989;52.566;13.346;2022-10-14T17:21:14;21.80;52.00
34776;DHT22;20989;52.566;13.346;2022-10-14T17:24:15;21.80;52.20
34776;DHT22;20989;52.566;13.346;2022-10-14T17:27:17;21.90;52.30
34776;DHT22;20989;52.566;13.346;2022-10-14T17:30:19;21.90;52.30
34776;DHT22;20989;52.566;13.346;2022-10-14T17:33:19;21.90;52.20
34776;DHT22;20989;52.566;13.346;2022-10-14T17:36:25;21.90;52.10
34776;DHT22;20989;52.566;13.346;2022-10-14T17:39:30;21.90;52.00
34776;DHT22;20989;52.566;13.346;2022-10-14T17:42:31;21.90;52.40
34776;DHT22;20989;52.566;13.346;2022-10-14T17:45:32;21.90;52.10
34776;DHT22;20989;52.566;13.346;2022-10-14T17:48:34;21.90;52.30
34776;DHT22;20989;52.566;13.346;2022-10-14T17:51:35;22.00;52.50
34776;DHT22;20989;52.566;13.346;2022-10-14T17:54:36;21.90;52.10
34776;DHT22;20989;52.566;13.346;2022-10-14T17:57:36;21.90;52.40
34776;DHT22;20989;52.566;13.346;2022-10-14T18:00:37;21.90;52.30
34776;DHT22;20989;52.566;13.346;2022-10-14T18:03:40;21.80;52.20
34776;DHT22;20989;52.566;13.346;2022-10-14T18:06:43;21.70;52.50
34776;DHT22;20989;52.566;13.346;2022-10-14T18:09:44;21.70;52.70
34776;DHT22;20989;52.566;13.346;2022-10-14T18:12:45;21.60;52.60
34776;DHT22;20989;52.566;13.346;2022-10-14T18:15:46;21.60;52.70
34776;DHT22;20989;52.566;13.346;2022-10-14T18:18:46;21.60;52.70
34776;DHT22;20989;52.566;13.346;2022-10-14T18:21:47;21.50;52.70
34776;DHT22;20989;52.566;13.346;2022-10-14T18:24:48;21.50;52.70
34776;DHT22;20989;52.566;13.346;2022-10-14T18:27:48;21.50;52.80
34776;DHT22;20989;52.566;13.346;2022-10-14T18:30:49;21.50;52.80
34776;DHT22;20989;52.566;13.346;2022-10-14T18:33:51;21.50;52.70
34776;DHT22;20989;52.566;13.346;2022-10-14T18:36:52;21.50;52.80
34776;DHT22;20989;52.566;13.346;2022-10-14T18:39:53;21.50;52.80
34776;DHT22;20989;52.566;13.346;2022-10-14T18:42:53;21.40;52.70
34776;DHT22;20989;52.566;13.346;2022-10-14T18:46:13;21.50;52.80
34776;DHT22;20989;52.566;13.346;2022-10-14T18:49:14;21.40;52.80
34776;DHT22;20989;52.566;13.346;2022-10-14T18:52:14;21.40;52.70
34776;DHT22;20989;52.566;13.346;2022-10-14T18:55:18;21.40;52.80
34776;DHT22;20989;52.566;13.346;2022-10-14T18:58:19;21.40;52.80
34776;DHT22;20989;52.566;13.346;2022-10-14T19:01:19;21.40;52.70
34776;DHT22;20989;52.566;13.346;2022-10-14T19:04:22;21.40;52.70
34776;DHT22;20989;52.566;13.346;2022-10-14T19:07:23;21.40;52.70
34776;DHT22;20989;52.566;13.346;2022-10-14T19:10:25;21.40;52.80
34776;DHT22;20989;52.566;13.346;2022-10-14T19:13:26;21.40;52.70
34776;DHT22;20989;52.566;13.346;2022-10-14T19:16:29;21.40;52.80
34776;DHT22;20989;52.566;13.346;2022-10-14T19:19:30;21.40;52.80
34776;DHT22;20989;52.566;13.346;2022-10-14T19:22:30;21.30;52.80
34776;DHT22;20989;52.566;13.346;2022-10-14T19:25:31;21.30;52.80
34776;DHT22;20989;52.566;13.346;2022-10-14T19:28:32;21.30;52.80
34776;DHT22;20989;52.566;13.346;2022-10-14T19:31:34;21.30;52.80
34776;DHT22;20989;52.566;13.346;2022-10-14T19:34:35;21.30;52.80
34776;DHT22;20989;52.566;13.346;2022-10-14T19:37:35;21.30;52.80
34776;DHT22;20989;52.566;13.346;2022-10-14T19:40:36;21.30;52.90
34776;DHT22;20989;52.566;13.346;2022-10-14T19:43:37;21.20;52.80
34776;DHT22;20989;52.566;13.346;2022-10-14T19:46:38;21.30;53.00
34776;DHT22;20989;52.566;13.346;2022-10-14T19:49:39;21.20;52.90
34776;DHT22;20989;52.566;13.346;2022-10-14T19:52:40;21.20;53.00
34776;DHT22;20989;52.566;13.346;2022-10-14T19:55:41;21.20;53.00
34776;DHT22;20989;52.566;13.346;2022-10-14T19:58:42;21.20;53.00
34776;DHT22;20989;52.566;13.346;2022-10-14T20:01:42;21.20;53.00
34776;DHT22;20989;52.566;13.346;2022-10-14T20:04:43;21.20;53.00
34776;DHT22;20989;52.566;13.346;2022-10-14T20:07:44;21.20;53.00
34776;DHT22;20989;52.566;13.346;2022-10-14T20:10:44;21.20;53.00
34776;DHT22;20989;52.566;13.346;2022-10-14T20:13:45;21.20;53.10
34776;DHT22;20989;52.566;13.346;2022-10-14T20:16:46;21.20;53.10
34776;DHT22;20989;52.566;13.346;2022-10-14T20:19:46;21.20;53.10
34776;DHT22;20989;52.566;13.346;2022-10-14T20:22:47;21.20;53.10
34776;DHT22;20989;52.566;13.346;2022-10-14T20:25:48;21.10;53.00
34776;DHT22;20989;52.566;13.346;2022-10-14T20:28:49;21.10;53.00
34776;DHT22;20989;52.566;13.346;2022-10-14T20:31:50;21.20;53.10
34776;DHT22;20989;52.566;13.346;2022-10-14T20:34:51;21.20;53.10
34776;DHT22;20989;52.566;13.346;2022-10-14T20:37:51;21.10;53.00
34776;DHT22;20989;52.566;13.346;2022-10-14T20:40:52;21.10;53.00